Time;durP1;ratioP1;P1;durP2;ratioP2;P2;SDS_P1;SDS_P2;PMS_P1;PMS_P2;Temp;Humidity;BMP_temperature;BMP_pressure;BME280_temperature;BME280_humidity;BME280_pressure;Samples;Min_cycle;Max_cycle;Signal;HPM_P1;HPM_P2
2022/06/13 00:00:13;;;;;;;;;;;;;;;;;;5127331;28;21158;-67
2022/06/13 00:02:39;;;;;;;;;;;;;;;;;;5132553;27;19927;-67
2022/06/13 00:05:05;;;;;;;;;;;;;;;;;;5126772;28;19935;-68
2022/06/13 00:07:31;;;;;;;;;;;;;;;;;;5124757;28;20376;-66
2022/06/13 00:09:57;;;;;;;;;;;;;;;;;;5125771;28;19931;-67
2022/06/13 00:12:23;;;;;;;;;;;;;;;;;;5122606;28;19938;-68
2022/06/13 00:14:49;;;;;;;;;;;;;;;;;;5137635;27;19991;-67
2022/06/13 00:17:15;;;;;;;;;;;;;;;;;;5125105;28;19963;-68
2022/06/13 00:19:41;;;;;;;;;;;;;;;;;;5126755;28;19971;-67
2022/06/13 00:22:07;;;;;;;;;;;;;;;;;;5125895;28;19982;-67
2022/06/13 00:24:32;;;;;;;;;;;;;;;;;;5125911;28;19987;-67
2022/06/13 00:26:58;;;;;;;;;;;;;;;;;;5126559;28;19924;-67
2022/06/13 00:29:24;;;;;;;;;;;;;;;;;;5125294;28;19930;-68
2022/06/13 00:31:50;;;;;;;;;;;;;;;;;;5128224;27;19923;-68
2022/06/13 00:34:16;;;;;;;;;;;;;;;;;;5126355;27;20438;-68
2022/06/13 00:36:42;;;;;;;;;;;;;;;;;;5126410;28;19959;-67
2022/06/13 00:39:08;;;;;;;;;;;;;;;;;;5124978;28;20661;-68
2022/06/13 00:41:34;;;;;;;;;;;;;;;;;;5129132;27;19931;-67
2022/06/13 00:44:00;;;;;;;;;;;;;;;;;;5126503;28;19930;-67
2022/06/13 00:46:26;;;;;;;;;;;;;;;;;;5126119;28;19924;-67
2022/06/13 00:48:52;;;;;;;;;;;;;;;;;;5124947;28;19928;-67
2022/06/13 00:51:18;;;;;;;;;;;;;;;;;;5128438;27;19920;-67
2022/06/13 00:53:45;;;;;;;;;;;;;;;;;;5126872;27;19928;-67
2022/06/13 00:56:11;;;;;;;;;;;;;;;;;;5125995;28;19924;-67
2022/06/13 00:58:38;;;;;;;;;;;;;;;;;;5125690;28;20374;-67
2022/06/13 01:01:04;;;;;;;;;;;;;;;;;;5129100;27;19938;-67
2022/06/13 01:03:30;;;;;;;;;;;;;;;;;;5130906;27;19919;-68
2022/06/13 01:05:56;;;;;;;;;;;;;;;;;;5125923;28;19927;-67
2022/06/13 01:08:22;;;;;;;;;;;;;;;;;;5123036;28;19947;-67
2022/06/13 01:13:33;;;;;;;;;;;;;;;;;;5129653;27;19934;-67
2022/06/13 01:15:59;;;;;;;;;;;;;;;;;;5124087;28;19924;-67
2022/06/13 01:18:25;;;;;;;;;;;;;;;;;;5125859;28;19935;-67
2022/06/13 01:20:51;;;;;;;;;;;;;;;;;;5125616;28;19924;-67
2022/06/13 01:23:16;;;;;;;;;;;;;;;;;;5136414;27;19924;-67
2022/06/13 01:25:42;;;;;;;;;;;;;;;;;;5125476;28;19928;-67
2022/06/13 01:28:08;;;;;;;;;;;;;;;;;;5125493;28;19977;-67
2022/06/13 01:30:34;;;;;;;;;;;;;;;;;;5125734;28;19924;-67
2022/06/13 01:33:00;;;;;;;;;;;;;;;;;;5137685;28;19924;-67
2022/06/13 01:35:26;;;;;;;;;;;;;;;;;;5122550;28;19970;-67
2022/06/13 01:37:52;;;;;;;;;;;;;;;;;;5125534;28;19981;-67
2022/06/13 01:40:18;;;;;;;;;;;;;;;;;;5125660;28;20012;-67
2022/06/13 01:42:44;;;;;;;;;;;;;;;;;;5123928;28;19985;-67
2022/06/13 01:45:10;;;;;;;;;;;;;;;;;;5125661;28;19963;-67
2022/06/13 01:47:36;;;;;;;;;;;;;;;;;;5124712;28;19924;-67
2022/06/13 01:50:02;;;;;;;;;;;;;;;;;;5123149;28;19928;-67
2022/06/13 01:52:28;;;;;;;;;;;;;;;;;;5127696;27;19928;-67
2022/06/13 01:54:54;;;;;;;;;;;;;;;;;;5125248;28;20336;-67
2022/06/13 01:57:20;;;;;;;;;;;;;;;;;;5125064;28;19923;-67
2022/06/13 01:59:47;;;;;;;;;;;;;;;;;;5125576;28;19924;-67
2022/06/13 02:02:13;;;;;;;;;;;;;;;;;;5131962;28;20122;-67
2022/06/13 02:04:39;;;;;;;;;;;;;;;;;;5122205;28;20015;-67
2022/06/13 02:07:05;;;;;;;;;;;;;;;;;;5125382;28;19991;-67
2022/06/13 02:09:31;;;;;;;;;;;;;;;;;;5125408;28;20009;-67
2022/06/13 02:11:57;;;;;;;;;;;;;;;;;;5134121;28;19930;-67
2022/06/13 02:14:23;;;;;;;;;;;;;;;;;;5125261;28;20002;-67
2022/06/13 02:16:49;;;;;;;;;;;;;;;;;;5113582;28;19975;-67
2022/06/13 02:19:15;;;;;;;;;;;;;;;;;;5125440;28;20421;-67
2022/06/13 02:21:41;;;;;;;;;;;;;;;;;;5125387;28;19920;-68
2022/06/13 02:24:07;;;;;;;;;;;;;;;;;;5123776;28;19924;-67
2022/06/13 02:26:33;;;;;;;;;;;;;;;;;;5124964;28;19981;-67
2022/06/13 02:28:59;;;;;;;;;;;;;;;;;;5125288;28;19931;-67
2022/06/13 02:31:25;;;;;;;;;;;;;;;;;;5127576;27;19923;-67
2022/06/13 02:33:51;;;;;;;;;;;;;;;;;;5128745;28;19924;-67
2022/06/13 02:36:17;;;;;;;;;;;;;;;;;;5128752;28;19924;-67
2022/06/13 02:38:43;;;;;;;;;;;;;;;;;;5127547;28;20271;-67
2022/06/13 02:41:09;;;;;;;;;;;;;;;;;;5137033;27;19931;-67
2022/06/13 02:43:35;;;;;;;;;;;;;;;;;;5126567;28;19924;-67
2022/06/13 02:46:01;;;;;;;;;;;;;;;;;;5127549;28;19931;-67
2022/06/13 02:48:27;;;;;;;;;;;;;;;;;;5128460;28;19947;-67
2022/06/13 02:50:53;;;;;;;;;;;;;;;;;;5138848;27;19927;-67
2022/06/13 02:53:19;;;;;;;;;;;;;;;;;;5130523;27;19924;-67
2022/06/13 02:55:45;;;;;;;;;;;;;;;;;;5128398;28;19928;-67
2022/06/13 02:58:11;;;;;;;;;;;;;;;;;;5127820;28;19931;-66
2022/06/13 03:00:40;;;;;;;;;;;;;;;;;;5127366;28;20147;-67
2022/06/13 03:03:06;;;;;;;;;;;;;;;;;;5128097;28;19923;-67
2022/06/13 03:05:32;;;;;;;;;;;;;;;;;;5128255;28;19972;-67
2022/06/13 03:07:59;;;;;;;;;;;;;;;;;;5127896;28;19985;-67
2022/06/13 03:10:25;;;;;;;;;;;;;;;;;;5129873;27;19924;-67
2022/06/13 03:12:51;;;;;;;;;;;;;;;;;;5134292;27;19945;-67
2022/06/13 03:15:17;;;;;;;;;;;;;;;;;;5127995;28;19954;-67
2022/06/13 03:17:43;;;;;;;;;;;;;;;;;;5128091;28;19927;-67
2022/06/13 03:20:09;;;;;;;;;;;;;;;;;;5129410;27;19923;-68
2022/06/13 03:22:35;;;;;;;;;;;;;;;;;;5126625;28;19970;-68
2022/06/13 03:25:01;;;;;;;;;;;;;;;;;;5127821;28;19924;-68
2022/06/13 03:27:27;;;;;;;;;;;;;;;;;;5124050;27;19924;-67
2022/06/13 03:29:53;;;;;;;;;;;;;;;;;;5127716;27;19924;-67
2022/06/13 03:32:19;;;;;;;;;;;;;;;;;;5133187;27;19931;-67
2022/06/13 03:34:45;;;;;;;;;;;;;;;;;;5127988;27;19931;-67
2022/06/13 03:37:11;;;;;;;;;;;;;;;;;;5135559;27;20374;-67
2022/06/13 03:39:37;;;;;;;;;;;;;;;;;;5129336;27;19923;-68
2022/06/13 03:42:03;;;;;;;;;;;;;;;;;;5126365;28;19928;-67
2022/06/13 03:44:29;;;;;;;;;;;;;;;;;;5126086;28;19924;-67
2022/06/13 03:46:55;;;;;;;;;;;;;;;;;;5132251;27;19924;-67
2022/06/13 03:49:21;;;;;;;;;;;;;;;;;;5134232;27;19946;-67
2022/06/13 03:51:47;;;;;;;;;;;;;;;;;;5126663;28;19923;-67
2022/06/13 03:54:13;;;;;;;;;;;;;;;;;;5124321;28;19924;-67
2022/06/13 03:56:39;;;;;;;;;;;;;;;;;;5127059;28;19931;-67
2022/06/13 03:59:05;;;;;;;;;;;;;;;;;;5125689;28;19924;-67
2022/06/13 04:01:31;;;;;;;;;;;;;;;;;;5128105;27;19924;-68
2022/06/13 04:04:00;;;;;;;;;;;;;;;;;;5127308;28;19945;-67
2022/06/13 04:06:26;;;;;;;;;;;;;;;;;;5125130;28;19920;-67
2022/06/13 04:08:52;;;;;;;;;;;;;;;;;;5127005;28;19955;-67
2022/06/13 04:11:18;;;;;;;;;;;;;;;;;;5126906;28;19931;-68
2022/06/13 04:13:44;;;;;;;;;;;;;;;;;;5126798;28;19931;-67
2022/06/13 04:16:10;;;;;;;;;;;;;;;;;;5122300;28;19923;-67
2022/06/13 04:18:36;;;;;;;;;;;;;;;;;;5122257;28;19931;-67
2022/06/13 04:21:03;;;;;;;;;;;;;;;;;;5123319;28;20113;-67
2022/06/13 04:23:29;;;;;;;;;;;;;;;;;;5125591;28;19988;-67
2022/06/13 04:25:55;;;;;;;;;;;;;;;;;;5133368;27;19946;-67
2022/06/13 04:28:21;;;;;;;;;;;;;;;;;;5128322;27;19924;-68
2022/06/13 04:30:47;;;;;;;;;;;;;;;;;;5126493;28;19975;-67
2022/06/13 04:33:13;;;;;;;;;;;;;;;;;;5125721;28;19923;-67
2022/06/13 04:35:39;;;;;;;;;;;;;;;;;;5126394;28;20340;-68
2022/06/13 04:38:05;;;;;;;;;;;;;;;;;;5126903;27;19924;-68
2022/06/13 04:40:31;;;;;;;;;;;;;;;;;;5125004;28;19938;-67
2022/06/13 04:42:57;;;;;;;;;;;;;;;;;;5126305;28;20006;-67
2022/06/13 04:45:23;;;;;;;;;;;;;;;;;;5132166;27;20010;-68
2022/06/13 04:47:49;;;;;;;;;;;;;;;;;;5131613;27;20001;-67
2022/06/13 04:50:15;;;;;;;;;;;;;;;;;;5126332;28;19923;-67
2022/06/13 04:52:41;;;;;;;;;;;;;;;;;;5124631;28;19971;-67
2022/06/13 04:55:07;;;;;;;;;;;;;;;;;;5123432;27;20486;-69
2022/06/13 04:57:33;;;;;;;;;;;;;;;;;;5117607;28;19930;-67
2022/06/13 04:59:59;;;;;;;;;;;;;;;;;;5121662;28;19955;-68
2022/06/13 05:02:25;;;;;;;;;;;;;;;;;;5121278;28;19936;-68
2022/06/13 05:04:51;;;;;;;;;;;;;;;;;;5123118;28;19926;-68
2022/06/13 05:07:17;;;;;;;;;;;;;;;;;;5116618;28;19967;-67
2022/06/13 05:09:43;;;;;;;;;;;;;;;;;;5123897;28;19931;-68
2022/06/13 05:12:09;;;;;;;;;;;;;;;;;;5125515;28;19978;-67
2022/06/13 05:14:35;;;;;;;;;;;;;;;;;;5122169;28;19975;-68
2022/06/13 05:17:02;;;;;;;;;;;;;;;;;;5119685;28;19928;-68
2022/06/13 05:19:28;;;;;;;;;;;;;;;;;;5125001;28;19978;-68
2022/06/13 05:21:54;;;;;;;;;;;;;;;;;;5125342;28;19923;-67
2022/06/13 05:24:20;;;;;;;;;;;;;;;;;;5125683;28;20402;-67
2022/06/13 05:26:46;;;;;;;;;;;;;;;;;;5124305;28;20112;-67
2022/06/13 05:29:12;;;;;;;;;;;;;;;;;;5137379;27;19989;-68
2022/06/13 05:31:38;;;;;;;;;;;;;;;;;;5125640;28;20026;-67
2022/06/13 05:34:04;;;;;;;;;;;;;;;;;;5124610;28;19928;-68
2022/06/13 05:36:30;;;;;;;;;;;;;;;;;;5126177;28;19924;-67
2022/06/13 05:38:56;;;;;;;;;;;;;;;;;;5125554;28;19931;-68
2022/06/13 05:41:22;;;;;;;;;;;;;;;;;;5125428;28;19924;-67
2022/06/13 05:43:48;;;;;;;;;;;;;;;;;;5125262;28;19981;-68
2022/06/13 05:46:14;;;;;;;;;;;;;;;;;;5128203;28;19927;-67
2022/06/13 05:48:40;;;;;;;;;;;;;;;;;;5121778;28;19970;-68
2022/06/13 05:51:05;;;;;;;;;;;;;;;;;;5125087;28;20162;-68
2022/06/13 05:53:31;;;;;;;;;;;;;;;;;;5125229;28;19977;-67
2022/06/13 05:55:57;;;;;;;;;;;;;;;;;;5128870;28;19927;-67
2022/06/13 05:58:23;;;;;;;;;;;;;;;;;;5127364;28;20438;-67
2022/06/13 06:00:49;;;;;;;;;;;;;;;;;;5125293;28;19923;-68
2022/06/13 06:03:16;;;;;;;;;;;;;;;;;;5124795;28;19927;-67
2022/06/13 06:05:42;;;;;;;;;;;;;;;;;;5134030;27;19942;-68
2022/06/13 06:08:08;;;;;;;;;;;;;;;;;;5135427;27;19950;-68
2022/06/13 06:10:35;;;;;;;;;;;;;;;;;;5129303;28;19923;-67
2022/06/13 06:13:02;;;;;;;;;;;;;;;;;;5127894;28;19931;-67
2022/06/13 06:15:28;;;;;;;;;;;;;;;;;;5129463;27;19923;-67
2022/06/13 06:17:54;;;;;;;;;;;;;;;;;;5129108;28;19931;-67
2022/06/13 06:20:20;;;;;;;;;;;;;;;;;;5129216;27;19931;-67
2022/06/13 06:22:46;;;;;;;;;;;;;;;;;;5128778;28;19928;-67
2022/06/13 06:25:12;;;;;;;;;;;;;;;;;;5129887;27;19934;-67
2022/06/13 06:27:38;;;;;;;;;;;;;;;;;;5131287;27;19924;-67
2022/06/13 06:30:04;;;;;;;;;;;;;;;;;;5128104;27;19927;-67
2022/06/13 06:32:30;;;;;;;;;;;;;;;;;;5129030;28;19966;-68
2022/06/13 06:34:56;;;;;;;;;;;;;;;;;;5133154;27;19924;-68
2022/06/13 06:37:22;;;;;;;;;;;;;;;;;;5131452;27;19927;-68
2022/06/13 06:39:48;;;;;;;;;;;;;;;;;;5128709;27;19928;-68
2022/06/13 06:42:14;;;;;;;;;;;;;;;;;;5139718;27;19923;-68
2022/06/13 06:44:40;;;;;;;;;;;;;;;;;;5139653;27;20355;-68
2022/06/13 06:47:06;;;;;;;;;;;;;;;;;;5133929;27;19924;-68
2022/06/13 06:49:34;;;;;;;;;;;;;;;;;;5124351;27;19945;-68
2022/06/13 06:52:00;;;;;;;;;;;;;;;;;;5128112;28;19937;-68
2022/06/13 06:59:57;;;;;;;;;;;;;;;;;;5128180;27;19934;-69
2022/06/13 07:02:23;;;;;;;;;;;;;;;;;;5128195;28;20349;-68
2022/06/13 07:04:49;;;;;;;;;;;;;;;;;;5137044;27;19945;-69
2022/06/13 07:07:15;;;;;;;;;;;;;;;;;;5128517;27;19946;-69
2022/06/13 07:09:41;;;;;;;;;;;;;;;;;;5124450;28;20016;-68
2022/06/13 07:12:07;;;;;;;;;;;;;;;;;;5127797;27;19923;-67
2022/06/13 07:14:34;;;;;;;;;;;;;;;;;;5126468;27;19923;-68
2022/06/13 07:17:00;;;;;;;;;;;;;;;;;;5124989;27;19959;-67
2022/06/13 07:19:26;;;;;;;;;;;;;;;;;;5130987;27;19924;-68
2022/06/13 07:21:52;;;;;;;;;;;;;;;;;;5135230;27;20014;-67
2022/06/13 07:24:18;;;;;;;;;;;;;;;;;;5130276;27;19924;-67
2022/06/13 07:26:44;;;;;;;;;;;;;;;;;;5128496;27;19934;-67
2022/06/13 07:29:10;;;;;;;;;;;;;;;;;;5158278;27;19924;-67
2022/06/13 07:31:36;;;;;;;;;;;;;;;;;;5131603;27;19932;-67
2022/06/13 07:34:02;;;;;;;;;;;;;;;;;;5130248;27;20022;-68
2022/06/13 07:36:28;;;;;;;;;;;;;;;;;;5128119;27;19938;-67
2022/06/13 07:38:54;;;;;;;;;;;;;;;;;;5126986;28;19931;-67
2022/06/13 07:41:20;;;;;;;;;;;;;;;;;;5123837;28;19924;-67
2022/06/13 07:43:46;;;;;;;;;;;;;;;;;;5128185;27;19924;-67
2022/06/13 07:46:13;;;;;;;;;;;;;;;;;;5125956;27;19928;-68
2022/06/13 07:48:39;;;;;;;;;;;;;;;;;;5127071;27;19923;-67
2022/06/13 07:51:05;;;;;;;;;;;;;;;;;;5121460;28;19954;-67
2022/06/13 07:53:31;;;;;;;;;;;;;;;;;;5124703;28;19978;-66
2022/06/13 07:55:57;;;;;;;;;;;;;;;;;;5125381;27;19924;-66
2022/06/13 07:58:23;;;;;;;;;;;;;;;;;;5123628;28;19924;-67
2022/06/13 08:00:49;;;;;;;;;;;;;;;;;;5125482;27;19957;-67
2022/06/13 08:03:15;;;;;;;;;;;;;;;;;;5123915;28;19931;-67
2022/06/13 08:05:41;;;;;;;;;;;;;;;;;;5122878;28;19920;-66
2022/06/13 08:08:07;;;;;;;;;;;;;;;;;;5123170;28;19924;-67
2022/06/13 08:10:34;;;;;;;;;;;;;;;;;;5123006;28;19931;-65
2022/06/13 08:13:00;;;;;;;;;;;;;;;;;;5123371;28;19932;-66
2022/06/13 08:15:26;;;;;;;;;;;;;;;;;;5117925;28;21169;-66
2022/06/13 08:17:52;;;;;;;;;;;;;;;;;;5124215;28;19966;-65
2022/06/13 08:20:18;;;;;;;;;;;;;;;;;;5124104;27;19931;-65
2022/06/13 08:22:44;;;;;;;;;;;;;;;;;;5125135;27;19930;-66
2022/06/13 08:25:10;;;;;;;;;;;;;;;;;;5122150;27;19930;-65
2022/06/13 08:27:36;;;;;;;;;;;;;;;;;;5123943;28;19932;-67
2022/06/13 08:30:02;;;;;;;;;;;;;;;;;;5121112;27;19951;-62
2022/06/13 08:32:28;;;;;;;;;;;;;;;;;;5124086;28;20405;-62
2022/06/13 08:34:54;;;;;;;;;;;;;;;;;;5127853;27;19963;-63
2022/06/13 08:37:20;;;;;;;;;;;;;;;;;;5117138;27;19995;-62
2022/06/13 08:39:46;;;;;;;;;;;;;;;;;;5128394;27;19945;-62
2022/06/13 08:42:13;;;;;;;;;;;;;;;;;;5126861;27;19932;-62
2022/06/13 08:44:39;;;;;;;;;;;;;;;;;;5120096;27;20467;-62
2022/06/13 08:47:05;;;;;;;;;;;;;;;;;;5110807;28;19927;-63
2022/06/13 08:49:31;;;;;;;;;;;;;;;;;;5117762;27;19978;-65
2022/06/13 08:51:57;;;;;;;;;;;;;;;;;;5123385;27;19920;-68
2022/06/13 08:54:23;;;;;;;;;;;;;;;;;;5115657;27;19978;-68
2022/06/13 08:56:49;;;;;;;;;;;;;;;;;;5125725;27;19930;-65
2022/06/13 08:59:24;;;;;;;;;;;;;;;;;;5115388;28;19947;-64
2022/06/13 09:01:50;;;;;;;;;;;;;;;;;;5116963;27;19927;-64
2022/06/13 09:04:16;;;;;;;;;;;;;;;;;;5115232;28;19927;-66
2022/06/13 09:06:43;;;;;;;;;;;;;;;;;;5120384;28;19939;-67
2022/06/13 09:09:08;;;;;;;;;;;;;;;;;;5119550;27;19946;-68
2022/06/13 09:11:34;;;;;;;;;;;;;;;;;;5117490;27;19924;-68
2022/06/13 09:14:02;;;;;;;;;;;;;;;;;;5114400;28;20370;-67
2022/06/13 09:16:28;;;;;;;;;;;;;;;;;;5115757;28;19932;-68
2022/06/13 09:18:54;;;;;;;;;;;;;;;;;;5118589;27;19924;-73
2022/06/13 09:21:20;;;;;;;;;;;;;;;;;;5148785;27;20299;-68
2022/06/13 09:23:46;;;;;;;;;;;;;;;;;;5122027;28;19920;-72
2022/06/13 09:26:12;;;;;;;;;;;;;;;;;;5115595;27;19928;-65
2022/06/13 09:28:38;;;;;;;;;;;;;;;;;;5122629;27;19934;-65
2022/06/13 09:31:04;;;;;;;;;;;;;;;;;;5120297;28;19932;-65
2022/06/13 09:33:30;;;;;;;;;;;;;;;;;;5123508;28;19955;-65
2022/06/13 09:35:56;;;;;;;;;;;;;;;;;;5117276;27;19928;-66
2022/06/13 09:38:22;;;;;;;;;;;;;;;;;;5132483;28;19976;-66
2022/06/13 09:40:48;;;;;;;;;;;;;;;;;;5131976;27;19927;-65
2022/06/13 09:43:14;;;;;;;;;;;;;;;;;;5129383;27;19942;-67
2022/06/13 09:45:40;;;;;;;;;;;;;;;;;;5133124;27;19962;-64
2022/06/13 09:48:06;;;;;;;;;;;;;;;;;;5118742;27;19977;-63
2022/06/13 09:50:32;;;;;;;;;;;;;;;;;;5129676;27;19927;-62
2022/06/13 09:52:58;;;;;;;;;;;;;;;;;;5133981;27;19931;-61
2022/06/13 09:55:24;;;;;;;;;;;;;;;;;;5128274;27;19924;-66
2022/06/13 09:57:50;;;;;;;;;;;;;;;;;;5120213;28;19924;-62
2022/06/13 10:00:16;;;;;;;;;;;;;;;;;;5122296;27;19978;-67
2022/06/13 10:02:42;;;;;;;;;;;;;;;;;;5120737;27;19982;-68
2022/06/13 10:05:08;;;;;;;;;;;;;;;;;;5121529;27;19987;-68
2022/06/13 10:07:34;;;;;;;;;;;;;;;;;;5130880;27;19924;-66
2022/06/13 10:10:00;;;;;;;;;;;;;;;;;;5121536;27;19932;-66
2022/06/13 10:12:28;;;;;;;;;;;;;;;;;;5120135;27;19923;-65
2022/06/13 10:14:54;;;;;;;;;;;;;;;;;;5118276;27;19927;-66
2022/06/13 10:17:20;;;;;;;;;;;;;;;;;;5130606;27;19931;-68
2022/06/13 10:19:46;;;;;;;;;;;;;;;;;;5129997;27;20393;-68
2022/06/13 10:22:12;;;;;;;;;;;;;;;;;;5116027;28;19946;-68
2022/06/13 10:24:38;;;;;;;;;;;;;;;;;;5156318;27;19945;-67
2022/06/13 10:27:04;;;;;;;;;;;;;;;;;;5127836;27;19927;-69
2022/06/13 10:29:31;;;;;;;;;;;;;;;;;;5158935;27;19963;-70
2022/06/13 10:31:57;;;;;;;;;;;;;;;;;;5120692;28;19924;-70
2022/06/13 10:34:25;;;;;;;;;;;;;;;;;;5130985;27;19932;-66
2022/06/13 10:36:52;;;;;;;;;;;;;;;;;;5126537;27;20371;-64
2022/06/13 10:39:18;;;;;;;;;;;;;;;;;;5162883;27;20498;-69
2022/06/13 10:41:44;;;;;;;;;;;;;;;;;;5133305;27;19924;-68
2022/06/13 10:44:11;;;;;;;;;;;;;;;;;;5139336;27;19931;-69
2022/06/13 10:46:37;;;;;;;;;;;;;;;;;;5124193;27;19923;-68
2022/06/13 10:49:03;;;;;;;;;;;;;;;;;;5120066;27;19924;-68
2022/06/13 10:51:29;;;;;;;;;;;;;;;;;;5122225;27;20041;-68
2022/06/13 10:53:56;;;;;;;;;;;;;;;;;;5134627;27;20693;-69
2022/06/13 10:56:22;;;;;;;;;;;;;;;;;;5138738;27;19924;-68
2022/06/13 10:58:48;;;;;;;;;;;;;;;;;;5137590;27;19927;-63
2022/06/13 11:01:14;;;;;;;;;;;;;;;;;;5134807;27;19924;-64
2022/06/13 11:03:40;;;;;;;;;;;;;;;;;;5128501;27;20136;-66
2022/06/13 11:06:06;;;;;;;;;;;;;;;;;;5128135;27;19927;-69
2022/06/13 11:08:32;;;;;;;;;;;;;;;;;;5129318;27;19923;-69
2022/06/13 11:10:58;;;;;;;;;;;;;;;;;;5129061;27;19946;-69
2022/06/13 11:13:24;;;;;;;;;;;;;;;;;;5119089;27;19923;-66
2022/06/13 11:24:04;;;;;;;;;;;;;;;;;;5142702;27;19931;-65
2022/06/13 11:29:14;;;;;;;;;;;;;;;;;;5133922;27;19924;-65
2022/06/13 11:31:40;;;;;;;;;;;;;;;;;;5130233;27;20002;-65
2022/06/13 11:34:06;;;;;;;;;;;;;;;;;;5130337;27;20374;-69
2022/06/13 11:36:34;;;;;;;;;;;;;;;;;;5118478;27;19935;-76
2022/06/13 11:39:00;;;;;;;;;;;;;;;;;;5118102;27;19924;-63
2022/06/13 11:41:26;;;;;;;;;;;;;;;;;;5130126;27;19924;-63
2022/06/13 11:43:52;;;;;;;;;;;;;;;;;;5128627;27;20407;-63
2022/06/13 11:46:18;;;;;;;;;;;;;;;;;;5117395;27;19930;-63
2022/06/13 11:48:44;;;;;;;;;;;;;;;;;;5125967;27;20022;-64
2022/06/13 11:51:10;;;;;;;;;;;;;;;;;;5127763;27;20393;-67
2022/06/13 11:53:36;;;;;;;;;;;;;;;;;;5129809;27;19935;-73
2022/06/13 11:56:02;;;;;;;;;;;;;;;;;;5135541;27;19927;-72
2022/06/13 11:58:28;;;;;;;;;;;;;;;;;;5131287;27;19982;-72
2022/06/13 12:00:54;;;;;;;;;;;;;;;;;;5126335;27;20020;-73
2022/06/13 12:03:20;;;;;;;;;;;;;;;;;;5112169;27;19975;-73
2022/06/13 12:05:46;;;;;;;;;;;;;;;;;;5131463;27;19932;-70
2022/06/13 12:08:12;;;;;;;;;;;;;;;;;;5124506;27;19927;-65
2022/06/13 12:10:41;;;;;;;;;;;;;;;;;;5119902;27;19924;-66
2022/06/13 12:13:07;;;;;;;;;;;;;;;;;;5151377;27;19932;-65
2022/06/13 12:15:33;;;;;;;;;;;;;;;;;;5118561;27;19985;-65
2022/06/13 12:18:00;;;;;;;;;;;;;;;;;;5130655;27;19924;-71
2022/06/13 12:20:26;;;;;;;;;;;;;;;;;;5130958;27;20021;-67
2022/06/13 12:22:52;;;;;;;;;;;;;;;;;;5120557;27;19924;-68
2022/06/13 12:25:18;;;;;;;;;;;;;;;;;;5127668;27;19967;-68
2022/06/13 12:27:44;;;;;;;;;;;;;;;;;;5111110;28;19931;-67
2022/06/13 12:30:10;;;;;;;;;;;;;;;;;;5118131;27;20006;-67
2022/06/13 12:32:36;;;;;;;;;;;;;;;;;;5123646;27;19924;-66
2022/06/13 12:35:02;;;;;;;;;;;;;;;;;;5121820;27;20024;-73
2022/06/13 12:37:28;;;;;;;;;;;;;;;;;;5117816;28;19924;-71
2022/06/13 12:39:54;;;;;;;;;;;;;;;;;;5119320;27;19924;-73
2022/06/13 12:42:19;;;;;;;;;;;;;;;;;;5127974;27;20314;-76
2022/06/13 12:44:45;;;;;;;;;;;;;;;;;;5137881;27;19959;-75
2022/06/13 12:47:11;;;;;;;;;;;;;;;;;;5130757;27;19924;-74
2022/06/13 12:49:37;;;;;;;;;;;;;;;;;;5125958;27;19924;-69
2022/06/13 12:52:06;;;;;;;;;;;;;;;;;;5131878;27;19923;-67
2022/06/13 12:54:32;;;;;;;;;;;;;;;;;;5139774;27;19933;-67
2022/06/13 12:56:58;;;;;;;;;;;;;;;;;;5136356;27;19932;-68
2022/06/13 12:59:24;;;;;;;;;;;;;;;;;;5129747;27;19924;-70
2022/06/13 13:01:50;;;;;;;;;;;;;;;;;;5127946;27;19971;-64
2022/06/13 13:04:16;;;;;;;;;;;;;;;;;;5115039;27;19924;-69
2022/06/13 13:06:42;;;;;;;;;;;;;;;;;;5121359;28;19935;-65
2022/06/13 13:09:08;;;;;;;;;;;;;;;;;;5120231;27;19924;-65
2022/06/13 13:11:34;;;;;;;;;;;;;;;;;;5116453;27;20606;-67
2022/06/13 13:14:00;;;;;;;;;;;;;;;;;;5129545;27;20287;-66
2022/06/13 13:16:26;;;;;;;;;;;;;;;;;;5119052;28;19949;-68
2022/06/13 13:18:52;;;;;;;;;;;;;;;;;;5116010;28;19923;-65
2022/06/13 13:21:18;;;;;;;;;;;;;;;;;;5121975;27;19935;-64
2022/06/13 13:23:44;;;;;;;;;;;;;;;;;;5116010;27;21303;-68
2022/06/13 13:26:10;;;;;;;;;;;;;;;;;;5121306;28;19939;-66
2022/06/13 13:28:36;;;;;;;;;;;;;;;;;;5123933;27;19931;-70
2022/06/13 13:31:02;;;;;;;;;;;;;;;;;;5123331;28;19958;-67
2022/06/13 13:33:28;;;;;;;;;;;;;;;;;;5125372;28;19955;-68
2022/06/13 13:35:54;;;;;;;;;;;;;;;;;;5121660;28;19923;-69
2022/06/13 13:38:20;;;;;;;;;;;;;;;;;;5129247;28;19923;-69
2022/06/13 13:40:46;;;;;;;;;;;;;;;;;;5115121;28;20379;-68
2022/06/13 13:43:13;;;;;;;;;;;;;;;;;;5123097;28;19927;-66
2022/06/13 13:45:39;;;;;;;;;;;;;;;;;;5117223;28;19959;-68
2022/06/13 13:48:05;;;;;;;;;;;;;;;;;;5120130;28;19923;-70
2022/06/13 13:50:31;;;;;;;;;;;;;;;;;;5152074;27;19924;-74
2022/06/13 13:52:57;;;;;;;;;;;;;;;;;;5111871;28;19924;-64
2022/06/13 13:55:23;;;;;;;;;;;;;;;;;;5122935;27;19928;-68
2022/06/13 13:57:49;;;;;;;;;;;;;;;;;;5125663;27;20032;-67
2022/06/13 14:00:15;;;;;;;;;;;;;;;;;;5126294;28;19971;-67
2022/06/13 14:02:41;;;;;;;;;;;;;;;;;;5121376;28;19930;-62
2022/06/13 14:05:07;;;;;;;;;;;;;;;;;;5120072;28;19939;-63
2022/06/13 14:07:34;;;;;;;;;;;;;;;;;;5118921;28;19924;-63
2022/06/13 14:10:00;;;;;;;;;;;;;;;;;;5131732;27;20038;-63
2022/06/13 14:12:26;;;;;;;;;;;;;;;;;;5125151;28;19924;-63
2022/06/13 14:14:52;;;;;;;;;;;;;;;;;;5127130;28;19931;-63
2022/06/13 14:17:18;;;;;;;;;;;;;;;;;;5126708;28;19931;-62
2022/06/13 14:19:44;;;;;;;;;;;;;;;;;;5125109;28;19927;-63
2022/06/13 14:22:11;;;;;;;;;;;;;;;;;;5123942;28;20026;-63
2022/06/13 14:24:37;;;;;;;;;;;;;;;;;;5126599;28;20626;-63
2022/06/13 14:27:03;;;;;;;;;;;;;;;;;;5130793;28;19937;-63
2022/06/13 14:29:31;;;;;;;;;;;;;;;;;;5127131;27;19931;-63
2022/06/13 14:31:57;;;;;;;;;;;;;;;;;;5123980;27;19992;-63
2022/06/13 14:37:07;;;;;;;;;;;;;;;;;;5123725;28;19928;-63
2022/06/13 14:39:33;;;;;;;;;;;;;;;;;;5124291;28;20048;-63
2022/06/13 14:41:59;;;;;;;;;;;;;;;;;;5125707;28;19946;-62
2022/06/13 14:44:25;;;;;;;;;;;;;;;;;;5126447;28;19970;-63
2022/06/13 14:46:51;;;;;;;;;;;;;;;;;;5125826;27;19935;-62
2022/06/13 14:49:17;;;;;;;;;;;;;;;;;;5121409;27;19934;-61
2022/06/13 14:51:43;;;;;;;;;;;;;;;;;;5128024;27;19931;-72
2022/06/13 14:54:09;;;;;;;;;;;;;;;;;;5108140;27;19955;-71
2022/06/13 14:56:35;;;;;;;;;;;;;;;;;;5130113;27;19924;-71
2022/06/13 14:59:01;;;;;;;;;;;;;;;;;;5125951;27;19971;-71
2022/06/13 15:01:27;;;;;;;;;;;;;;;;;;5164016;27;19930;-70
2022/06/13 15:03:53;;;;;;;;;;;;;;;;;;5133116;27;19933;-71
2022/06/13 15:06:19;;;;;;;;;;;;;;;;;;5127715;27;19976;-70
2022/06/13 15:08:45;;;;;;;;;;;;;;;;;;5118959;28;19923;-69
2022/06/13 15:11:11;;;;;;;;;;;;;;;;;;5118639;27;19923;-68
2022/06/13 15:13:37;;;;;;;;;;;;;;;;;;5117084;27;19924;-70
2022/06/13 15:16:03;;;;;;;;;;;;;;;;;;5124314;27;19935;-70
2022/06/13 15:18:29;;;;;;;;;;;;;;;;;;5114801;27;19932;-69
2022/06/13 15:20:55;;;;;;;;;;;;;;;;;;5151553;27;20444;-67
2022/06/13 15:23:21;;;;;;;;;;;;;;;;;;5116495;27;19924;-67
2022/06/13 15:25:47;;;;;;;;;;;;;;;;;;5131299;27;19965;-67
2022/06/13 15:28:13;;;;;;;;;;;;;;;;;;5136371;27;19995;-67
2022/06/13 15:30:39;;;;;;;;;;;;;;;;;;5154081;27;19956;-61
2022/06/13 15:33:05;;;;;;;;;;;;;;;;;;5116391;27;19923;-62
2022/06/13 15:35:31;;;;;;;;;;;;;;;;;;5113225;27;19946;-62
2022/06/13 15:37:57;;;;;;;;;;;;;;;;;;5131119;27;19924;-63
2022/06/13 15:40:23;;;;;;;;;;;;;;;;;;5121747;27;19932;-62
2022/06/13 15:42:50;;;;;;;;;;;;;;;;;;5120038;27;19924;-61
2022/06/13 15:45:16;;;;;;;;;;;;;;;;;;5125550;27;19931;-62
2022/06/13 15:47:42;;;;;;;;;;;;;;;;;;5120486;27;19932;-64
2022/06/13 15:50:08;;;;;;;;;;;;;;;;;;5124004;27;19931;-63
2022/06/13 15:52:34;;;;;;;;;;;;;;;;;;5114794;27;19971;-61
2022/06/13 15:55:01;;;;;;;;;;;;;;;;;;5116089;27;19930;-64
2022/06/13 15:57:26;;;;;;;;;;;;;;;;;;5152795;27;19923;-64
2022/06/13 15:59:52;;;;;;;;;;;;;;;;;;5121707;27;19998;-64
2022/06/13 16:02:18;;;;;;;;;;;;;;;;;;5114720;27;19928;-66
2022/06/13 16:04:44;;;;;;;;;;;;;;;;;;5126449;27;19966;-66
2022/06/13 16:07:10;;;;;;;;;;;;;;;;;;5119485;28;20469;-69
2022/06/13 16:09:36;;;;;;;;;;;;;;;;;;5123881;27;19969;-64
2022/06/13 16:12:02;;;;;;;;;;;;;;;;;;5127291;27;20040;-64
2022/06/13 16:14:28;;;;;;;;;;;;;;;;;;5120028;28;20517;-63
2022/06/13 16:16:55;;;;;;;;;;;;;;;;;;5114931;28;19967;-64
2022/06/13 16:19:21;;;;;;;;;;;;;;;;;;5122188;27;20452;-64
2022/06/13 16:21:47;;;;;;;;;;;;;;;;;;5125252;27;19932;-65
2022/06/13 16:24:15;;;;;;;;;;;;;;;;;;5123874;28;19928;-65
2022/06/13 16:26:41;;;;;;;;;;;;;;;;;;5123716;28;19927;-65
2022/06/13 16:29:07;;;;;;;;;;;;;;;;;;5124554;28;20412;-65
2022/06/13 16:31:33;;;;;;;;;;;;;;;;;;5124686;27;19946;-65
2022/06/13 16:33:59;;;;;;;;;;;;;;;;;;5122783;28;19971;-65
2022/06/13 16:36:25;;;;;;;;;;;;;;;;;;5122329;27;19932;-64
2022/06/13 16:38:52;;;;;;;;;;;;;;;;;;5128375;27;19967;-64
2022/06/13 16:41:18;;;;;;;;;;;;;;;;;;5115567;28;19924;-64
2022/06/13 16:43:44;;;;;;;;;;;;;;;;;;5126337;27;19931;-64
2022/06/13 16:46:11;;;;;;;;;;;;;;;;;;5123477;27;20276;-64
2022/06/13 16:48:37;;;;;;;;;;;;;;;;;;5128072;28;19955;-64
2022/06/13 16:51:03;;;;;;;;;;;;;;;;;;5128675;27;19952;-65
2022/06/13 16:53:29;;;;;;;;;;;;;;;;;;5123794;27;19932;-64
2022/06/13 16:55:55;;;;;;;;;;;;;;;;;;5125906;27;19924;-64
2022/06/13 16:58:21;;;;;;;;;;;;;;;;;;5125320;28;20333;-64